This is the latest recevied weather packets stored in our database for station/object JA6XZK-13. If no packets are shown the sender has not sent any weather packets the latest 10 day(s).
| Time | Temp. | Humidity | Pressure | Rain* | Wind** | Luminosity | Snow |
|---|---|---|---|---|---|---|---|
| 1777645897 | 15.56° C | 66% | 1004.6 hPa | - | - | - | - |
| 1777644660 | 15° C | 65% | 1004.2 hPa | - | - | - | - |
| 1777642861 | 15° C | 63% | 1003.8 hPa | - | - | - | - |
| 1777641062 | 15° C | 62% | 1003.3 hPa | - | - | - | - |
| 1777640199 | 15° C | 62% | 1003.1 hPa | - | - | - | - |
| 1777638400 | 15° C | 61% | 1002.8 hPa | - | - | - | - |
| 1777636601 | 15° C | 59% | 1002.3 hPa | - | - | - | - |
| 1777634802 | 15.56° C | 59% | 1001.9 hPa | - | - | - | - |
| 1777633003 | 15.56° C | 58% | 1001.3 hPa | - | - | - | - |
| 1777631203 | 15.56° C | 59% | 1000.7 hPa | - | - | - | - |
| 1777629404 | 15.56° C | 60% | 1000.4 hPa | - | - | - | - |
| 1777627605 | 16.11° C | 60% | 1000.2 hPa | - | - | - | - |
| 1777625806 | 16.67° C | 58% | 999.8 hPa | - | - | - | - |
| 1777624007 | 16.67° C | 60% | 999.5 hPa | - | - | - | - |
| 1777622207 | 16.67° C | 58% | 998.8 hPa | - | - | - | - |
| 1777620408 | 17.22° C | 59% | 998.3 hPa | - | - | - | - |
| 1777618609 | 18.33° C | 50% | 998.1 hPa | - | - | - | - |
| 1777616810 | 18.89° C | 53% | 998 hPa | - | - | - | - |
| 1777615010 | 19.44° C | 53% | 997.6 hPa | - | - | - | - |
| 1777613211 | 19.44° C | 54% | 997.8 hPa | - | - | - | - |
| 1777611412 | 19.44° C | 55% | 997.8 hPa | - | - | - | - |
| 1777609613 | 18.33° C | 61% | 998.4 hPa | - | - | - | - |
| 1777607814 | 18.33° C | 63% | 998.3 hPa | - | - | - | - |
| 1777606015 | 18.89° C | 66% | 998.6 hPa | - | - | - | - |
| 1777604215 | 18.33° C | 71% | 999 hPa | - | - | - | - |
* Rain since midnight (hover to see other rain measurements)
** Current wind speed in m/s (hover to see current wind gust speed)